sensor_id;sensor_type;location;lat;lon;timestamp;P1;durP1;ratioP1;P2;durP2;ratioP2
55423;SDS011;41294;42.666;23.350;2023-12-14T00:01:21;19.87;;;14.77;;
55423;SDS011;41294;42.666;23.350;2023-12-14T00:03:46;22.70;;;15.53;;
55423;SDS011;41294;42.666;23.350;2023-12-14T00:06:12;20.60;;;14.37;;
55423;SDS011;41294;42.666;23.350;2023-12-14T00:08:38;20.20;;;15.00;;
55423;SDS011;41294;42.666;23.350;2023-12-14T00:11:04;20.33;;;14.27;;
55423;SDS011;41294;42.666;23.350;2023-12-14T00:13:30;18.83;;;14.77;;
55423;SDS011;41294;42.666;23.350;2023-12-14T00:15:56;19.67;;;13.60;;
55423;SDS011;41294;42.666;23.350;2023-12-14T00:18:21;20.47;;;13.73;;
55423;SDS011;41294;42.666;23.350;2023-12-14T00:20:47;18.83;;;13.47;;
55423;SDS011;41294;42.666;23.350;2023-12-14T00:23:13;16.27;;;12.50;;
55423;SDS011;41294;42.666;23.350;2023-12-14T00:25:39;18.87;;;12.93;;
55423;SDS011;41294;42.666;23.350;2023-12-14T00:28:04;18.17;;;13.67;;
55423;SDS011;41294;42.666;23.350;2023-12-14T00:30:30;16.47;;;12.07;;
55423;SDS011;41294;42.666;23.350;2023-12-14T00:32:55;18.57;;;12.73;;
55423;SDS011;41294;42.666;23.350;2023-12-14T00:35:21;15.97;;;12.47;;
55423;SDS011;41294;42.666;23.350;2023-12-14T00:37:46;18.07;;;12.73;;
55423;SDS011;41294;42.666;23.350;2023-12-14T00:40:12;16.97;;;12.67;;
55423;SDS011;41294;42.666;23.350;2023-12-14T00:42:37;17.80;;;12.07;;
55423;SDS011;41294;42.666;23.350;2023-12-14T00:45:03;17.67;;;13.67;;
55423;SDS011;41294;42.666;23.350;2023-12-14T00:47:28;18.50;;;12.40;;
55423;SDS011;41294;42.666;23.350;2023-12-14T00:49:54;17.73;;;13.30;;
55423;SDS011;41294;42.666;23.350;2023-12-14T00:52:19;17.70;;;13.80;;
55423;SDS011;41294;42.666;23.350;2023-12-14T00:54:45;18.03;;;13.03;;
55423;SDS011;41294;42.666;23.350;2023-12-14T00:57:10;17.67;;;12.73;;
55423;SDS011;41294;42.666;23.350;2023-12-14T00:59:36;17.37;;;13.57;;
55423;SDS011;41294;42.666;23.350;2023-12-14T01:02:01;18.37;;;13.17;;
55423;SDS011;41294;42.666;23.350;2023-12-14T01:04:27;17.33;;;12.23;;
55423;SDS011;41294;42.666;23.350;2023-12-14T01:06:52;19.17;;;13.50;;
55423;SDS011;41294;42.666;23.350;2023-12-14T01:09:18;17.03;;;12.17;;
55423;SDS011;41294;42.666;23.350;2023-12-14T01:11:43;16.60;;;12.13;;
55423;SDS011;41294;42.666;23.350;2023-12-14T01:14:09;17.83;;;13.17;;
55423;SDS011;41294;42.666;23.350;2023-12-14T01:16:34;18.20;;;13.17;;
55423;SDS011;41294;42.666;23.350;2023-12-14T01:19:00;18.17;;;12.73;;
55423;SDS011;41294;42.666;23.350;2023-12-14T01:21:25;15.80;;;12.73;;
55423;SDS011;41294;42.666;23.350;2023-12-14T01:23:51;18.57;;;12.93;;
55423;SDS011;41294;42.666;23.350;2023-12-14T01:26:17;19.23;;;12.90;;
55423;SDS011;41294;42.666;23.350;2023-12-14T01:28:43;16.57;;;12.57;;
55423;SDS011;41294;42.666;23.350;2023-12-14T01:31:09;18.00;;;12.83;;
55423;SDS011;41294;42.666;23.350;2023-12-14T01:33:34;16.37;;;12.23;;
55423;SDS011;41294;42.666;23.350;2023-12-14T01:35:59;16.73;;;12.57;;
55423;SDS011;41294;42.666;23.350;2023-12-14T01:38:25;16.53;;;12.77;;
55423;SDS011;41294;42.666;23.350;2023-12-14T01:40:50;17.33;;;12.07;;
55423;SDS011;41294;42.666;23.350;2023-12-14T01:43:16;16.60;;;12.50;;
55423;SDS011;41294;42.666;23.350;2023-12-14T01:45:41;18.60;;;13.87;;
55423;SDS011;41294;42.666;23.350;2023-12-14T01:48:07;16.50;;;13.07;;
55423;SDS011;41294;42.666;23.350;2023-12-14T01:50:32;17.37;;;13.20;;
55423;SDS011;41294;42.666;23.350;2023-12-14T01:52:58;18.77;;;13.50;;
55423;SDS011;41294;42.666;23.350;2023-12-14T01:55:23;19.37;;;13.67;;
55423;SDS011;41294;42.666;23.350;2023-12-14T01:57:51;18.53;;;12.77;;
55423;SDS011;41294;42.666;23.350;2023-12-14T02:00:26;17.27;;;12.47;;
55423;SDS011;41294;42.666;23.350;2023-12-14T02:02:59;16.77;;;12.93;;
55423;SDS011;41294;42.666;23.350;2023-12-14T02:05:25;17.93;;;13.57;;
55423;SDS011;41294;42.666;23.350;2023-12-14T02:07:50;17.33;;;13.70;;
55423;SDS011;41294;42.666;23.350;2023-12-14T02:10:16;20.30;;;14.37;;
55423;SDS011;41294;42.666;23.350;2023-12-14T02:12:41;17.40;;;12.90;;
55423;SDS011;41294;42.666;23.350;2023-12-14T02:15:07;20.93;;;13.53;;
55423;SDS011;41294;42.666;23.350;2023-12-14T02:17:34;17.07;;;13.43;;
55423;SDS011;41294;42.666;23.350;2023-12-14T02:19:59;17.83;;;13.67;;
55423;SDS011;41294;42.666;23.350;2023-12-14T02:22:26;16.83;;;12.90;;
55423;SDS011;41294;42.666;23.350;2023-12-14T02:24:52;17.80;;;14.20;;
55423;SDS011;41294;42.666;23.350;2023-12-14T02:27:17;16.63;;;12.20;;
55423;SDS011;41294;42.666;23.350;2023-12-14T02:29:43;16.20;;;13.03;;
55423;SDS011;41294;42.666;23.350;2023-12-14T02:32:08;18.10;;;13.37;;
55423;SDS011;41294;42.666;23.350;2023-12-14T02:34:33;16.00;;;12.70;;
55423;SDS011;41294;42.666;23.350;2023-12-14T02:36:59;19.27;;;13.70;;
55423;SDS011;41294;42.666;23.350;2023-12-14T02:39:24;16.63;;;12.30;;
55423;SDS011;41294;42.666;23.350;2023-12-14T02:41:50;15.97;;;12.43;;
55423;SDS011;41294;42.666;23.350;2023-12-14T02:44:15;15.77;;;11.80;;
55423;SDS011;41294;42.666;23.350;2023-12-14T02:46:41;16.10;;;12.33;;
55423;SDS011;41294;42.666;23.350;2023-12-14T02:49:06;15.07;;;12.23;;
55423;SDS011;41294;42.666;23.350;2023-12-14T02:51:32;17.50;;;12.33;;
55423;SDS011;41294;42.666;23.350;2023-12-14T02:53:57;14.33;;;11.70;;
55423;SDS011;41294;42.666;23.350;2023-12-14T02:56:23;16.43;;;12.77;;
55423;SDS011;41294;42.666;23.350;2023-12-14T02:58:49;16.77;;;11.77;;
55423;SDS011;41294;42.666;23.350;2023-12-14T03:01:19;15.73;;;11.67;;
55423;SDS011;41294;42.666;23.350;2023-12-14T03:03:46;17.13;;;12.17;;
55423;SDS011;41294;42.666;23.350;2023-12-14T03:06:12;14.53;;;11.90;;
55423;SDS011;41294;42.666;23.350;2023-12-14T03:08:37;15.73;;;11.60;;
55423;SDS011;41294;42.666;23.350;2023-12-14T03:11:03;15.87;;;11.73;;
55423;SDS011;41294;42.666;23.350;2023-12-14T03:13:29;15.80;;;10.83;;
55423;SDS011;41294;42.666;23.350;2023-12-14T03:15:54;14.70;;;11.60;;
55423;SDS011;41294;42.666;23.350;2023-12-14T03:18:20;13.63;;;10.70;;
55423;SDS011;41294;42.666;23.350;2023-12-14T03:20:46;14.13;;;10.27;;
55423;SDS011;41294;42.666;23.350;2023-12-14T03:23:11;15.13;;;11.20;;
55423;SDS011;41294;42.666;23.350;2023-12-14T03:25:37;12.70;;;10.40;;
55423;SDS011;41294;42.666;23.350;2023-12-14T03:28:02;14.27;;;10.60;;
55423;SDS011;41294;42.666;23.350;2023-12-14T03:30:28;14.37;;;10.73;;
55423;SDS011;41294;42.666;23.350;2023-12-14T03:32:53;13.87;;;10.73;;
55423;SDS011;41294;42.666;23.350;2023-12-14T03:35:19;13.67;;;10.77;;
55423;SDS011;41294;42.666;23.350;2023-12-14T03:37:44;14.77;;;10.73;;
55423;SDS011;41294;42.666;23.350;2023-12-14T03:40:10;13.07;;;10.33;;
55423;SDS011;41294;42.666;23.350;2023-12-14T03:42:35;14.23;;;10.57;;
55423;SDS011;41294;42.666;23.350;2023-12-14T03:45:01;12.43;;;10.13;;
55423;SDS011;41294;42.666;23.350;2023-12-14T03:47:26;13.50;;;10.67;;
55423;SDS011;41294;42.666;23.350;2023-12-14T03:49:52;16.37;;;10.40;;
55423;SDS011;41294;42.666;23.350;2023-12-14T03:52:17;14.70;;;10.40;;
55423;SDS011;41294;42.666;23.350;2023-12-14T03:54:43;13.57;;;10.23;;
55423;SDS011;41294;42.666;23.350;2023-12-14T03:57:08;11.37;;;9.60;;
55423;SDS011;41294;42.666;23.350;2023-12-14T03:59:34;14.03;;;10.83;;
55423;SDS011;41294;42.666;23.350;2023-12-14T04:02:03;13.20;;;10.03;;
55423;SDS011;41294;42.666;23.350;2023-12-14T04:04:28;14.20;;;9.80;;
55423;SDS011;41294;42.666;23.350;2023-12-14T04:06:54;14.20;;;10.53;;
55423;SDS011;41294;42.666;23.350;2023-12-14T04:09:19;12.93;;;9.33;;
55423;SDS011;41294;42.666;23.350;2023-12-14T04:11:45;14.27;;;10.07;;
55423;SDS011;41294;42.666;23.350;2023-12-14T04:14:10;11.33;;;9.73;;
55423;SDS011;41294;42.666;23.350;2023-12-14T04:16:36;12.43;;;10.17;;
55423;SDS011;41294;42.666;23.350;2023-12-14T04:19:01;16.20;;;10.40;;
55423;SDS011;41294;42.666;23.350;2023-12-14T04:21:27;13.60;;;10.53;;
55423;SDS011;41294;42.666;23.350;2023-12-14T04:23:53;12.30;;;9.77;;
55423;SDS011;41294;42.666;23.350;2023-12-14T04:26:18;12.73;;;9.20;;
55423;SDS011;41294;42.666;23.350;2023-12-14T04:28:44;12.07;;;10.33;;
55423;SDS011;41294;42.666;23.350;2023-12-14T04:31:11;12.90;;;10.27;;
55423;SDS011;41294;42.666;23.350;2023-12-14T04:33:36;12.60;;;9.90;;
55423;SDS011;41294;42.666;23.350;2023-12-14T04:36:02;11.07;;;9.07;;
55423;SDS011;41294;42.666;23.350;2023-12-14T04:38:28;13.63;;;9.70;;
55423;SDS011;41294;42.666;23.350;2023-12-14T04:40:53;12.70;;;9.83;;
55423;SDS011;41294;42.666;23.350;2023-12-14T04:43:19;11.37;;;9.03;;
55423;SDS011;41294;42.666;23.350;2023-12-14T04:45:44;11.53;;;9.40;;
55423;SDS011;41294;42.666;23.350;2023-12-14T04:48:10;12.57;;;8.97;;
55423;SDS011;41294;42.666;23.350;2023-12-14T04:50:35;10.77;;;8.63;;
55423;SDS011;41294;42.666;23.350;2023-12-14T04:53:01;12.00;;;9.07;;
55423;SDS011;41294;42.666;23.350;2023-12-14T04:55:26;11.87;;;9.33;;
55423;SDS011;41294;42.666;23.350;2023-12-14T04:57:51;11.00;;;9.60;;
55423;SDS011;41294;42.666;23.350;2023-12-14T05:00:17;13.07;;;9.03;;
55423;SDS011;41294;42.666;23.350;2023-12-14T05:02:45;11.87;;;9.33;;
55423;SDS011;41294;42.666;23.350;2023-12-14T05:05:13;14.30;;;10.00;;
55423;SDS011;41294;42.666;23.350;2023-12-14T05:07:38;9.27;;;7.77;;
55423;SDS011;41294;42.666;23.350;2023-12-14T05:10:04;10.47;;;8.07;;
55423;SDS011;41294;42.666;23.350;2023-12-14T05:12:30;11.33;;;9.23;;
55423;SDS011;41294;42.666;23.350;2023-12-14T05:14:56;11.67;;;8.60;;
55423;SDS011;41294;42.666;23.350;2023-12-14T05:17:22;12.13;;;9.13;;
55423;SDS011;41294;42.666;23.350;2023-12-14T05:19:47;10.37;;;8.33;;
55423;SDS011;41294;42.666;23.350;2023-12-14T05:22:13;13.70;;;10.07;;
55423;SDS011;41294;42.666;23.350;2023-12-14T05:24:38;12.17;;;9.77;;
55423;SDS011;41294;42.666;23.350;2023-12-14T05:27:04;12.17;;;9.60;;
55423;SDS011;41294;42.666;23.350;2023-12-14T05:29:29;11.50;;;9.03;;
55423;SDS011;41294;42.666;23.350;2023-12-14T05:31:56;12.17;;;9.87;;
55423;SDS011;41294;42.666;23.350;2023-12-14T05:34:22;12.90;;;9.13;;
55423;SDS011;41294;42.666;23.350;2023-12-14T05:36:47;12.50;;;9.27;;
55423;SDS011;41294;42.666;23.350;2023-12-14T05:39:13;10.80;;;9.20;;
55423;SDS011;41294;42.666;23.350;2023-12-14T05:41:39;11.80;;;9.57;;
55423;SDS011;41294;42.666;23.350;2023-12-14T05:44:08;11.17;;;9.30;;
55423;SDS011;41294;42.666;23.350;2023-12-14T05:46:33;12.53;;;9.20;;
55423;SDS011;41294;42.666;23.350;2023-12-14T05:48:59;11.97;;;8.50;;
55423;SDS011;41294;42.666;23.350;2023-12-14T05:51:28;12.17;;;9.80;;
55423;SDS011;41294;42.666;23.350;2023-12-14T05:53:54;13.63;;;9.33;;
55423;SDS011;41294;42.666;23.350;2023-12-14T05:56:19;12.27;;;9.70;;
55423;SDS011;41294;42.666;23.350;2023-12-14T05:58:45;14.07;;;9.23;;
55423;SDS011;41294;42.666;23.350;2023-12-14T06:01:10;11.10;;;9.60;;
55423;SDS011;41294;42.666;23.350;2023-12-14T06:03:36;12.27;;;9.47;;
55423;SDS011;41294;42.666;23.350;2023-12-14T06:06:01;15.60;;;8.90;;
55423;SDS011;41294;42.666;23.350;2023-12-14T06:08:27;10.30;;;8.20;;
55423;SDS011;41294;42.666;23.350;2023-12-14T06:10:52;11.63;;;8.90;;
55423;SDS011;41294;42.666;23.350;2023-12-14T06:13:18;12.00;;;8.20;;
55423;SDS011;41294;42.666;23.350;2023-12-14T06:15:43;12.03;;;9.20;;
55423;SDS011;41294;42.666;23.350;2023-12-14T06:18:09;12.50;;;9.37;;
55423;SDS011;41294;42.666;23.350;2023-12-14T06:20:34;10.60;;;8.60;;
55423;SDS011;41294;42.666;23.350;2023-12-14T06:22:59;11.40;;;8.97;;
55423;SDS011;41294;42.666;23.350;2023-12-14T06:25:25;13.40;;;9.13;;
55423;SDS011;41294;42.666;23.350;2023-12-14T06:27:50;10.53;;;9.03;;
55423;SDS011;41294;42.666;23.350;2023-12-14T06:30:16;13.80;;;9.77;;
55423;SDS011;41294;42.666;23.350;2023-12-14T06:32:41;12.83;;;9.13;;
55423;SDS011;41294;42.666;23.350;2023-12-14T06:35:07;12.20;;;9.10;;
55423;SDS011;41294;42.666;23.350;2023-12-14T06:37:33;10.80;;;8.83;;
55423;SDS011;41294;42.666;23.350;2023-12-14T06:39:58;11.37;;;8.83;;
55423;SDS011;41294;42.666;23.350;2023-12-14T06:42:24;11.30;;;9.43;;
55423;SDS011;41294;42.666;23.350;2023-12-14T06:44:54;12.77;;;8.93;;
55423;SDS011;41294;42.666;23.350;2023-12-14T06:47:19;13.33;;;10.20;;
55423;SDS011;41294;42.666;23.350;2023-12-14T06:49:45;12.17;;;9.63;;
55423;SDS011;41294;42.666;23.350;2023-12-14T06:52:10;10.27;;;8.83;;
55423;SDS011;41294;42.666;23.350;2023-12-14T06:54:35;11.63;;;9.23;;
55423;SDS011;41294;42.666;23.350;2023-12-14T06:57:01;10.60;;;8.57;;
55423;SDS011;41294;42.666;23.350;2023-12-14T06:59:27;10.47;;;8.37;;
55423;SDS011;41294;42.666;23.350;2023-12-14T07:01:52;14.10;;;9.93;;
55423;SDS011;41294;42.666;23.350;2023-12-14T07:04:18;10.40;;;8.87;;
55423;SDS011;41294;42.666;23.350;2023-12-14T07:06:50;10.07;;;8.50;;
55423;SDS011;41294;42.666;23.350;2023-12-14T07:09:19;14.57;;;9.90;;
55423;SDS011;41294;42.666;23.350;2023-12-14T07:11:44;12.27;;;9.50;;
55423;SDS011;41294;42.666;23.350;2023-12-14T07:14:12;12.90;;;10.10;;
55423;SDS011;41294;42.666;23.350;2023-12-14T07:16:39;12.40;;;9.80;;
55423;SDS011;41294;42.666;23.350;2023-12-14T07:19:05;10.30;;;9.00;;
55423;SDS011;41294;42.666;23.350;2023-12-14T07:21:31;13.00;;;9.77;;
55423;SDS011;41294;42.666;23.350;2023-12-14T07:23:56;11.83;;;9.23;;
55423;SDS011;41294;42.666;23.350;2023-12-14T07:26:22;12.13;;;8.87;;
55423;SDS011;41294;42.666;23.350;2023-12-14T07:28:48;13.13;;;9.60;;
55423;SDS011;41294;42.666;23.350;2023-12-14T07:31:13;12.30;;;9.10;;
55423;SDS011;41294;42.666;23.350;2023-12-14T07:33:39;13.47;;;9.37;;
55423;SDS011;41294;42.666;23.350;2023-12-14T07:36:04;13.17;;;9.37;;
55423;SDS011;41294;42.666;23.350;2023-12-14T07:38:30;11.53;;;9.17;;
55423;SDS011;41294;42.666;23.350;2023-12-14T07:40:56;11.13;;;8.60;;
55423;SDS011;41294;42.666;23.350;2023-12-14T07:43:22;11.23;;;8.60;;
55423;SDS011;41294;42.666;23.350;2023-12-14T07:45:48;9.53;;;8.50;;
55423;SDS011;41294;42.666;23.350;2023-12-14T07:48:13;13.53;;;9.50;;
55423;SDS011;41294;42.666;23.350;2023-12-14T07:50:39;9.67;;;8.00;;
55423;SDS011;41294;42.666;23.350;2023-12-14T07:53:04;13.83;;;9.20;;
55423;SDS011;41294;42.666;23.350;2023-12-14T07:55:30;10.93;;;8.97;;
55423;SDS011;41294;42.666;23.350;2023-12-14T07:57:56;11.90;;;9.10;;
55423;SDS011;41294;42.666;23.350;2023-12-14T08:00:21;13.07;;;8.90;;
55423;SDS011;41294;42.666;23.350;2023-12-14T08:02:47;10.63;;;9.03;;
55423;SDS011;41294;42.666;23.350;2023-12-14T08:05:12;13.87;;;9.40;;
55423;SDS011;41294;42.666;23.350;2023-12-14T08:07:38;10.63;;;8.57;;
55423;SDS011;41294;42.666;23.350;2023-12-14T08:10:03;11.43;;;7.37;;
55423;SDS011;41294;42.666;23.350;2023-12-14T08:12:29;10.80;;;7.90;;
55423;SDS011;41294;42.666;23.350;2023-12-14T08:14:55;8.23;;;6.97;;
55423;SDS011;41294;42.666;23.350;2023-12-14T08:17:20;9.73;;;6.67;;
55423;SDS011;41294;42.666;23.350;2023-12-14T08:19:46;7.43;;;6.47;;
55423;SDS011;41294;42.666;23.350;2023-12-14T08:22:12;7.80;;;6.27;;
55423;SDS011;41294;42.666;23.350;2023-12-14T08:24:41;8.90;;;6.63;;
55423;SDS011;41294;42.666;23.350;2023-12-14T08:27:07;7.97;;;6.40;;
55423;SDS011;41294;42.666;23.350;2023-12-14T08:29:32;9.67;;;6.87;;
55423;SDS011;41294;42.666;23.350;2023-12-14T08:31:58;9.80;;;8.13;;
55423;SDS011;41294;42.666;23.350;2023-12-14T08:34:27;8.73;;;7.00;;
55423;SDS011;41294;42.666;23.350;2023-12-14T08:36:53;9.00;;;7.27;;
55423;SDS011;41294;42.666;23.350;2023-12-14T08:39:18;9.60;;;7.10;;
55423;SDS011;41294;42.666;23.350;2023-12-14T08:41:47;10.13;;;7.07;;
55423;SDS011;41294;42.666;23.350;2023-12-14T08:44:16;9.50;;;7.53;;
55423;SDS011;41294;42.666;23.350;2023-12-14T08:46:43;8.57;;;7.30;;
55423;SDS011;41294;42.666;23.350;2023-12-14T08:49:11;10.00;;;7.73;;
55423;SDS011;41294;42.666;23.350;2023-12-14T08:51:37;10.27;;;7.57;;
55423;SDS011;41294;42.666;23.350;2023-12-14T08:54:03;10.17;;;6.73;;
55423;SDS011;41294;42.666;23.350;2023-12-14T08:56:29;12.90;;;7.53;;
55423;SDS011;41294;42.666;23.350;2023-12-14T08:58:56;9.07;;;6.53;;
55423;SDS011;41294;42.666;23.350;2023-12-14T09:01:22;10.53;;;7.13;;
55423;SDS011;41294;42.666;23.350;2023-12-14T09:03:48;7.67;;;5.77;;
55423;SDS011;41294;42.666;23.350;2023-12-14T09:06:15;9.13;;;6.43;;
55423;SDS011;41294;42.666;23.350;2023-12-14T09:08:41;8.27;;;6.70;;
55423;SDS011;41294;42.666;23.350;2023-12-14T09:11:07;10.80;;;6.60;;
55423;SDS011;41294;42.666;23.350;2023-12-14T09:13:33;9.57;;;7.20;;
55423;SDS011;41294;42.666;23.350;2023-12-14T09:15:59;10.83;;;6.43;;
55423;SDS011;41294;42.666;23.350;2023-12-14T09:18:24;10.03;;;6.60;;
55423;SDS011;41294;42.666;23.350;2023-12-14T09:20:50;8.53;;;6.53;;
55423;SDS011;41294;42.666;23.350;2023-12-14T09:23:16;11.50;;;6.47;;
55423;SDS011;41294;42.666;23.350;2023-12-14T09:25:42;8.60;;;6.77;;
55423;SDS011;41294;42.666;23.350;2023-12-14T09:28:07;9.40;;;6.40;;
55423;SDS011;41294;42.666;23.350;2023-12-14T09:30:33;8.17;;;6.63;;
55423;SDS011;41294;42.666;23.350;2023-12-14T09:32:58;9.60;;;6.73;;
55423;SDS011;41294;42.666;23.350;2023-12-14T09:35:24;8.47;;;6.60;;
55423;SDS011;41294;42.666;23.350;2023-12-14T09:37:49;7.83;;;6.20;;
55423;SDS011;41294;42.666;23.350;2023-12-14T09:40:15;9.00;;;5.90;;
55423;SDS011;41294;42.666;23.350;2023-12-14T09:42:41;11.10;;;8.57;;
55423;SDS011;41294;42.666;23.350;2023-12-14T09:45:08;11.30;;;8.03;;
55423;SDS011;41294;42.666;23.350;2023-12-14T09:47:35;9.83;;;6.80;;
55423;SDS011;41294;42.666;23.350;2023-12-14T09:50:01;10.80;;;6.50;;
55423;SDS011;41294;42.666;23.350;2023-12-14T09:52:28;10.30;;;8.47;;
55423;SDS011;41294;42.666;23.350;2023-12-14T09:54:54;11.60;;;8.43;;
55423;SDS011;41294;42.666;23.350;2023-12-14T09:57:19;13.87;;;8.67;;
55423;SDS011;41294;42.666;23.350;2023-12-14T09:59:54;10.20;;;7.30;;
55423;SDS011;41294;42.666;23.350;2023-12-14T10:02:24;10.53;;;7.17;;
55423;SDS011;41294;42.666;23.350;2023-12-14T10:04:51;12.13;;;7.33;;
55423;SDS011;41294;42.666;23.350;2023-12-14T10:07:17;15.40;;;7.47;;
55423;SDS011;41294;42.666;23.350;2023-12-14T10:09:43;11.27;;;6.77;;
55423;SDS011;41294;42.666;23.350;2023-12-14T10:12:09;11.87;;;6.60;;
55423;SDS011;41294;42.666;23.350;2023-12-14T10:14:36;10.10;;;6.93;;
55423;SDS011;41294;42.666;23.350;2023-12-14T10:17:16;10.40;;;6.33;;
55423;SDS011;41294;42.666;23.350;2023-12-14T10:19:44;10.47;;;5.90;;
55423;SDS011;41294;42.666;23.350;2023-12-14T10:22:11;9.43;;;6.97;;
55423;SDS011;41294;42.666;23.350;2023-12-14T10:24:42;11.50;;;6.43;;
55423;SDS011;41294;42.666;23.350;2023-12-14T10:27:13;10.87;;;6.33;;
55423;SDS011;41294;42.666;23.350;2023-12-14T10:29:41;11.37;;;6.30;;
55423;SDS011;41294;42.666;23.350;2023-12-14T10:32:07;14.13;;;5.63;;
55423;SDS011;41294;42.666;23.350;2023-12-14T10:34:34;12.90;;;6.33;;
55423;SDS011;41294;42.666;23.350;2023-12-14T10:37:01;9.90;;;6.57;;
55423;SDS011;41294;42.666;23.350;2023-12-14T10:39:29;10.33;;;6.83;;
55423;SDS011;41294;42.666;23.350;2023-12-14T10:41:56;10.77;;;7.20;;
55423;SDS011;41294;42.666;23.350;2023-12-14T10:44:27;10.20;;;6.60;;
55423;SDS011;41294;42.666;23.350;2023-12-14T10:46:54;9.63;;;6.83;;
55423;SDS011;41294;42.666;23.350;2023-12-14T10:49:22;8.63;;;7.30;;
55423;SDS011;41294;42.666;23.350;2023-12-14T10:51:49;12.07;;;6.93;;
55423;SDS011;41294;42.666;23.350;2023-12-14T10:54:17;12.57;;;7.30;;
55423;SDS011;41294;42.666;23.350;2023-12-14T10:56:43;10.60;;;8.30;;
55423;SDS011;41294;42.666;23.350;2023-12-14T10:59:09;12.53;;;9.10;;
55423;SDS011;41294;42.666;23.350;2023-12-14T11:01:35;11.70;;;9.47;;
55423;SDS011;41294;42.666;23.350;2023-12-14T11:04:04;12.13;;;9.10;;
55423;SDS011;41294;42.666;23.350;2023-12-14T11:06:32;11.03;;;7.10;;
55423;SDS011;41294;42.666;23.350;2023-12-14T11:09:01;13.77;;;7.67;;
55423;SDS011;41294;42.666;23.350;2023-12-14T11:14:26;8.20;;;6.60;;
55423;SDS011;41294;42.666;23.350;2023-12-14T11:16:56;7.13;;;6.10;;
55423;SDS011;41294;42.666;23.350;2023-12-14T11:19:28;6.10;;;5.50;;
55423;SDS011;41294;42.666;23.350;2023-12-14T11:24:21;10.10;;;6.50;;
55423;SDS011;41294;42.666;23.350;2023-12-14T11:26:50;5.60;;;4.27;;
55423;SDS011;41294;42.666;23.350;2023-12-14T11:29:19;5.43;;;3.90;;
55423;SDS011;41294;42.666;23.350;2023-12-14T11:31:47;9.10;;;2.87;;
55423;SDS011;41294;42.666;23.350;2023-12-14T11:34:14;5.53;;;3.10;;
55423;SDS011;41294;42.666;23.350;2023-12-14T11:36:41;8.30;;;3.20;;
55423;SDS011;41294;42.666;23.350;2023-12-14T11:39:09;3.83;;;2.83;;
55423;SDS011;41294;42.666;23.350;2023-12-14T11:41:36;8.63;;;2.83;;
55423;SDS011;41294;42.666;23.350;2023-12-14T11:44:03;3.33;;;2.63;;
55423;SDS011;41294;42.666;23.350;2023-12-14T11:46:29;4.57;;;2.33;;
55423;SDS011;41294;42.666;23.350;2023-12-14T11:48:56;3.60;;;2.00;;
55423;SDS011;41294;42.666;23.350;2023-12-14T11:51:22;2.00;;;1.90;;
55423;SDS011;41294;42.666;23.350;2023-12-14T11:53:47;3.40;;;2.13;;
55423;SDS011;41294;42.666;23.350;2023-12-14T11:56:16;4.03;;;1.83;;
55423;SDS011;41294;42.666;23.350;2023-12-14T11:58:43;4.33;;;2.00;;
55423;SDS011;41294;42.666;23.350;2023-12-14T12:01:13;4.57;;;2.70;;
55423;SDS011;41294;42.666;23.350;2023-12-14T12:03:43;3.20;;;2.57;;
55423;SDS011;41294;42.666;23.350;2023-12-14T12:06:23;4.70;;;3.27;;
55423;SDS011;41294;42.666;23.350;2023-12-14T12:08:50;3.87;;;2.87;;
55423;SDS011;41294;42.666;23.350;2023-12-14T12:11:23;3.40;;;2.33;;
55423;SDS011;41294;42.666;23.350;2023-12-14T12:13:53;2.53;;;2.07;;
55423;SDS011;41294;42.666;23.350;2023-12-14T12:16:20;2.13;;;1.93;;
55423;SDS011;41294;42.666;23.350;2023-12-14T12:18:46;1.83;;;1.73;;
55423;SDS011;41294;42.666;23.350;2023-12-14T12:21:12;2.33;;;1.70;;
55423;SDS011;41294;42.666;23.350;2023-12-14T12:23:38;3.93;;;2.10;;
55423;SDS011;41294;42.666;23.350;2023-12-14T12:26:03;2.30;;;1.80;;
55423;SDS011;41294;42.666;23.350;2023-12-14T12:28:30;4.57;;;1.83;;
55423;SDS011;41294;42.666;23.350;2023-12-14T12:30:56;1.93;;;1.40;;
55423;SDS011;41294;42.666;23.350;2023-12-14T12:33:21;4.13;;;1.60;;
55423;SDS011;41294;42.666;23.350;2023-12-14T12:35:47;2.40;;;1.20;;
55423;SDS011;41294;42.666;23.350;2023-12-14T12:38:13;1.83;;;1.30;;
55423;SDS011;41294;42.666;23.350;2023-12-14T12:40:39;1.73;;;1.63;;
55423;SDS011;41294;42.666;23.350;2023-12-14T12:43:04;3.00;;;1.43;;
55423;SDS011;41294;42.666;23.350;2023-12-14T12:45:30;1.53;;;1.17;;
55423;SDS011;41294;42.666;23.350;2023-12-14T12:47:57;2.17;;;1.30;;
55423;SDS011;41294;42.666;23.350;2023-12-14T12:50:22;4.53;;;1.77;;
55423;SDS011;41294;42.666;23.350;2023-12-14T12:52:48;3.50;;;2.67;;
55423;SDS011;41294;42.666;23.350;2023-12-14T12:55:14;4.60;;;2.53;;
55423;SDS011;41294;42.666;23.350;2023-12-14T12:57:41;3.07;;;2.73;;
55423;SDS011;41294;42.666;23.350;2023-12-14T13:00:07;3.13;;;1.90;;
55423;SDS011;41294;42.666;23.350;2023-12-14T13:02:43;1.87;;;1.17;;
55423;SDS011;41294;42.666;23.350;2023-12-14T13:05:12;1.40;;;1.30;;
55423;SDS011;41294;42.666;23.350;2023-12-14T13:07:38;2.40;;;1.10;;
55423;SDS011;41294;42.666;23.350;2023-12-14T13:10:04;3.57;;;1.40;;
55423;SDS011;41294;42.666;23.350;2023-12-14T13:12:34;3.40;;;1.60;;
55423;SDS011;41294;42.666;23.350;2023-12-14T13:15:00;10.50;;;2.00;;
55423;SDS011;41294;42.666;23.350;2023-12-14T13:17:25;1.83;;;1.30;;
55423;SDS011;41294;42.666;23.350;2023-12-14T13:19:51;2.10;;;1.40;;
55423;SDS011;41294;42.666;23.350;2023-12-14T13:22:17;3.13;;;1.43;;
55423;SDS011;41294;42.666;23.350;2023-12-14T13:24:43;2.40;;;1.73;;
55423;SDS011;41294;42.666;23.350;2023-12-14T13:27:08;3.53;;;1.50;;
55423;SDS011;41294;42.666;23.350;2023-12-14T13:29:34;4.40;;;1.50;;
55423;SDS011;41294;42.666;23.350;2023-12-14T13:32:00;5.57;;;1.70;;
55423;SDS011;41294;42.666;23.350;2023-12-14T13:34:26;1.27;;;1.17;;
55423;SDS011;41294;42.666;23.350;2023-12-14T13:36:53;1.40;;;1.30;;
55423;SDS011;41294;42.666;23.350;2023-12-14T13:39:21;1.13;;;1.03;;
55423;SDS011;41294;42.666;23.350;2023-12-14T13:41:47;4.93;;;1.60;;
55423;SDS011;41294;42.666;23.350;2023-12-14T13:44:14;1.80;;;1.50;;
55423;SDS011;41294;42.666;23.350;2023-12-14T13:46:39;2.50;;;1.93;;
55423;SDS011;41294;42.666;23.350;2023-12-14T13:49:05;2.90;;;1.93;;
55423;SDS011;41294;42.666;23.350;2023-12-14T13:51:30;1.87;;;1.53;;
55423;SDS011;41294;42.666;23.350;2023-12-14T13:53:56;3.23;;;2.20;;
55423;SDS011;41294;42.666;23.350;2023-12-14T13:56:22;3.73;;;1.43;;
55423;SDS011;41294;42.666;23.350;2023-12-14T13:58:47;5.30;;;2.33;;
55423;SDS011;41294;42.666;23.350;2023-12-14T14:01:13;1.17;;;1.17;;
55423;SDS011;41294;42.666;23.350;2023-12-14T14:03:40;1.60;;;1.50;;
55423;SDS011;41294;42.666;23.350;2023-12-14T14:06:06;1.20;;;1.10;;
55423;SDS011;41294;42.666;23.350;2023-12-14T14:08:32;1.70;;;1.50;;
55423;SDS011;41294;42.666;23.350;2023-12-14T14:10:58;2.30;;;1.50;;
55423;SDS011;41294;42.666;23.350;2023-12-14T14:13:24;4.33;;;1.30;;
55423;SDS011;41294;42.666;23.350;2023-12-14T14:15:50;1.77;;;1.30;;
55423;SDS011;41294;42.666;23.350;2023-12-14T14:18:15;2.17;;;1.10;;
55423;SDS011;41294;42.666;23.350;2023-12-14T14:20:41;1.67;;;1.30;;